Belgrade, Montana
Current Conditions -  °F | °C
As of 6:56 PM on Saturday 25 Oct 2014 (Local Time) from KBZN Reporting Station
Clear Clear  
Wind Chill: 62°   Ceiling: Unl
Heat Index: 62°   Visibility: 10mi
Dew Point: 34°   Wind: 5mph
Humidity: 35%   Direction: NA
Pressure: 29.76"   Gusts: NA
Location:  45.78°N, 111.18°W
Report Text: KBZN 260056Z VRB04KT 10SM CLR 17/01 A2976 RMK AO2 SLP073 T01670011
Loading
Personal Weather Stations






























Interactive Weather Map
Tropical Storm Tracking
New forecast layout! Learn more

10-Day Weather Forecast

Advertisements
Track Severe Weather on mobile